createdAt,value
2024-04-24T00:00:03.103Z,491.00
2024-04-24T00:01:03.149Z,490.00
2024-04-24T00:02:03.098Z,489.00
2024-04-24T00:03:04.406Z,490.00
2024-04-24T00:04:03.134Z,490.00
2024-04-24T00:05:03.150Z,489.00
2024-04-24T00:06:03.097Z,489.00
2024-04-24T00:07:03.098Z,489.00
2024-04-24T00:08:03.164Z,487.00
2024-04-24T00:09:03.138Z,485.00
2024-04-24T00:10:03.144Z,483.00
2024-04-24T00:11:03.219Z,483.00
2024-04-24T00:12:03.216Z,484.00
2024-04-24T00:13:03.136Z,483.00
2024-04-24T00:14:03.188Z,483.00
2024-04-24T00:15:03.155Z,483.00
2024-04-24T00:16:03.145Z,480.00
2024-04-24T00:17:03.175Z,482.00
2024-04-24T00:18:03.172Z,484.00
2024-04-24T00:19:03.147Z,483.00
2024-04-24T00:20:03.166Z,485.00
2024-04-24T00:21:03.141Z,485.00
2024-04-24T00:22:03.154Z,485.00
2024-04-24T00:23:03.191Z,487.00
2024-04-24T00:24:03.152Z,488.00
2024-04-24T00:25:03.149Z,485.00
2024-04-24T00:26:03.178Z,486.00
2024-04-24T00:27:03.204Z,483.00
2024-04-24T00:28:03.180Z,483.00
2024-04-24T00:29:03.231Z,485.00
2024-04-24T00:30:03.180Z,485.00
2024-04-24T00:31:03.189Z,485.00
2024-04-24T00:32:03.210Z,487.00
2024-04-24T00:33:03.318Z,487.00
2024-04-24T00:34:03.310Z,488.00
2024-04-24T00:35:03.518Z,487.00
2024-04-24T00:36:03.491Z,489.00
2024-04-24T00:37:03.570Z,488.00
2024-04-24T00:38:03.699Z,488.00
2024-04-24T00:39:03.742Z,487.00
2024-04-24T00:40:03.824Z,486.00
2024-04-24T00:41:04.012Z,489.00
2024-04-24T00:42:04.017Z,490.00
2024-04-24T00:43:04.111Z,490.00
2024-04-24T00:44:04.311Z,493.00
2024-04-24T00:45:04.260Z,492.00
2024-04-24T00:46:04.326Z,491.00
2024-04-24T00:47:04.468Z,492.00
2024-04-24T00:48:04.562Z,492.00
2024-04-24T00:49:04.552Z,493.00
2024-04-24T00:50:04.656Z,495.00
2024-04-24T00:51:04.733Z,496.00
2024-04-24T00:52:04.799Z,494.00
2024-04-24T00:53:04.914Z,495.00
2024-04-24T00:54:04.975Z,492.00
2024-04-24T00:55:05.060Z,492.00
2024-04-24T00:56:05.143Z,495.00
2024-04-24T00:57:05.201Z,494.00
2024-04-24T00:58:05.264Z,493.00
2024-04-24T00:59:05.418Z,492.00
2024-04-24T01:00:05.428Z,490.00
2024-04-24T01:01:05.596Z,491.00
2024-04-24T01:02:05.655Z,491.00
2024-04-24T01:03:05.721Z,490.00
2024-04-24T01:04:05.805Z,489.00
2024-04-24T01:05:05.913Z,491.00
2024-04-24T01:06:05.920Z,491.00
2024-04-24T01:07:06.012Z,492.00
2024-04-24T01:08:06.115Z,492.00
2024-04-24T01:09:06.188Z,490.00
2024-04-24T01:10:06.257Z,489.00
2024-04-24T01:11:06.460Z,487.00
2024-04-24T01:12:06.606Z,486.00
2024-04-24T01:13:06.517Z,486.00
2024-04-24T01:14:06.596Z,486.00
2024-04-24T01:15:06.674Z,486.00
2024-04-24T01:16:06.734Z,486.00
2024-04-24T01:17:06.972Z,486.00
2024-04-24T01:18:07.025Z,484.00
2024-04-24T01:19:06.966Z,485.00
2024-04-24T01:20:07.090Z,483.00
2024-04-24T01:21:07.114Z,483.00
2024-04-24T01:22:07.196Z,484.00
2024-04-24T01:23:07.298Z,482.00
2024-04-24T01:24:07.347Z,479.00
2024-04-24T01:25:07.441Z,480.00
2024-04-24T01:26:07.507Z,482.00
2024-04-24T01:27:07.581Z,482.00
2024-04-24T01:28:07.682Z,482.00
2024-04-24T01:29:07.807Z,481.00
2024-04-24T01:30:07.834Z,482.00
2024-04-24T01:31:07.942Z,485.00
2024-04-24T01:32:08.068Z,484.00
2024-04-24T01:33:08.305Z,481.00
2024-04-24T01:34:08.167Z,482.00
2024-04-24T01:35:08.277Z,483.00
2024-04-24T01:36:08.321Z,485.00
2024-04-24T01:37:08.390Z,485.00
2024-04-24T01:38:08.529Z,485.00
2024-04-24T01:39:08.606Z,485.00
2024-04-24T01:40:08.640Z,485.00
2024-04-24T01:41:08.784Z,485.00
2024-04-24T01:42:08.807Z,484.00
2024-04-24T01:43:08.897Z,483.00
2024-04-24T01:44:09.034Z,480.00
2024-04-24T01:45:09.056Z,478.00
2024-04-24T01:46:09.130Z,477.00
2024-04-24T01:47:09.341Z,478.00
2024-04-24T01:48:09.353Z,478.00
2024-04-24T01:49:09.366Z,479.00
2024-04-24T01:50:09.460Z,479.00
2024-04-24T01:51:09.504Z,478.00
2024-04-24T01:52:09.582Z,477.00
2024-04-24T01:53:09.730Z,481.00
2024-04-24T01:54:09.758Z,479.00
2024-04-24T01:55:09.815Z,478.00
2024-04-24T01:56:10.003Z,479.00
2024-04-24T01:57:09.977Z,480.00
2024-04-24T01:58:10.069Z,479.00
2024-04-24T01:59:10.198Z,476.00
2024-04-24T02:00:10.233Z,474.00
2024-04-24T02:01:10.432Z,474.00
2024-04-24T02:02:10.462Z,473.00
2024-04-24T02:03:10.605Z,473.00
2024-04-24T02:04:10.637Z,476.00
2024-04-24T02:05:10.643Z,478.00
2024-04-24T02:06:10.699Z,475.00
2024-04-24T02:07:10.791Z,475.00
2024-04-24T02:08:10.897Z,476.00
2024-04-24T02:09:10.956Z,478.00
2024-04-24T02:10:11.032Z,479.00
2024-04-24T02:11:11.207Z,481.00
2024-04-24T02:12:16.302Z,480.00
2024-04-24T02:13:11.204Z,479.00
2024-04-24T02:14:11.206Z,477.00
2024-04-24T02:15:11.191Z,475.00
2024-04-24T02:16:11.194Z,475.00
2024-04-24T02:17:11.289Z,475.00
2024-04-24T02:18:11.267Z,477.00
2024-04-24T02:19:11.234Z,476.00
2024-04-24T02:20:11.262Z,475.00
2024-04-24T02:21:11.228Z,474.00
2024-04-24T02:22:11.215Z,476.00
2024-04-24T02:23:11.244Z,477.00
2024-04-24T02:24:11.225Z,478.00
2024-04-24T02:25:11.220Z,478.00
2024-04-24T02:26:11.253Z,477.00
2024-04-24T02:27:11.247Z,478.00
2024-04-24T02:28:11.263Z,476.00
2024-04-24T02:29:11.246Z,478.00
2024-04-24T02:30:11.239Z,477.00
2024-04-24T02:31:11.244Z,474.00
2024-04-24T02:32:11.315Z,473.00
2024-04-24T02:33:11.403Z,475.00
2024-04-24T02:34:11.245Z,476.00
2024-04-24T02:35:11.298Z,476.00
2024-04-24T02:36:11.272Z,473.00
2024-04-24T02:37:11.271Z,471.00
2024-04-24T02:38:11.310Z,474.00
2024-04-24T02:39:11.265Z,474.00
2024-04-24T02:40:11.257Z,474.00
2024-04-24T02:41:11.314Z,473.00
2024-04-24T02:42:11.276Z,470.00
2024-04-24T02:43:11.346Z,471.00
2024-04-24T02:44:11.451Z,473.00
2024-04-24T02:45:11.524Z,470.00
2024-04-24T02:46:11.597Z,468.00
2024-04-24T02:47:11.715Z,468.00
2024-04-24T02:48:11.824Z,469.00
2024-04-24T02:49:11.818Z,470.00
2024-04-24T02:50:11.946Z,471.00
2024-04-24T02:51:12.002Z,473.00
2024-04-24T02:52:12.052Z,474.00
2024-04-24T02:53:12.224Z,473.00
2024-04-24T02:54:12.228Z,471.00
2024-04-24T02:55:12.278Z,469.00
2024-04-24T02:56:12.386Z,469.00
2024-04-24T02:57:12.448Z,470.00
2024-04-24T02:58:12.529Z,471.00
2024-04-24T02:59:12.655Z,469.00
2024-04-24T03:00:12.711Z,468.00
2024-04-24T03:01:12.772Z,468.00
2024-04-24T03:02:12.911Z,474.00
2024-04-24T03:03:13.067Z,478.00
2024-04-24T03:04:13.019Z,477.00
2024-04-24T03:05:13.155Z,474.00
2024-04-24T03:06:13.175Z,472.00
2024-04-24T03:07:13.235Z,471.00
2024-04-24T03:08:13.368Z,467.00
2024-04-24T03:09:13.403Z,469.00
2024-04-24T03:10:13.455Z,469.00
2024-04-24T03:11:13.584Z,468.00
2024-04-24T03:12:13.590Z,469.00
2024-04-24T03:13:13.669Z,471.00
2024-04-24T03:14:13.781Z,471.00
2024-04-24T03:15:13.822Z,469.00
2024-04-24T03:16:13.895Z,471.00
2024-04-24T03:17:14.054Z,473.00
2024-04-24T03:18:14.156Z,475.00
2024-04-24T03:19:14.143Z,474.00
2024-04-24T03:20:14.258Z,475.00
2024-04-24T03:21:14.299Z,476.00
2024-04-24T03:22:14.360Z,474.00
2024-04-24T03:23:14.558Z,475.00
2024-04-24T03:24:14.505Z,474.00
2024-04-24T03:25:14.585Z,473.00
2024-04-24T03:26:14.685Z,474.00
2024-04-24T03:27:14.717Z,473.00
2024-04-24T03:28:14.853Z,472.00
2024-04-24T03:29:16.389Z,470.00
2024-04-24T03:30:14.865Z,471.00
2024-04-24T03:31:14.874Z,473.00
2024-04-24T03:32:14.961Z,475.00
2024-04-24T03:33:14.933Z,475.00
2024-04-24T03:34:14.877Z,475.00
2024-04-24T03:35:14.899Z,477.00
2024-04-24T03:36:14.874Z,477.00
2024-04-24T03:37:14.885Z,474.00
2024-04-24T03:38:14.911Z,473.00
2024-04-24T03:39:14.931Z,472.00
2024-04-24T03:40:14.887Z,473.00
2024-04-24T03:41:15.016Z,471.00
2024-04-24T03:42:14.900Z,468.00
2024-04-24T03:43:14.892Z,468.00
2024-04-24T03:44:14.914Z,467.00
2024-04-24T03:45:14.893Z,465.00
2024-04-24T03:46:14.892Z,464.00
2024-04-24T03:47:14.987Z,465.00
2024-04-24T03:48:15.048Z,465.00
2024-04-24T03:49:14.939Z,466.00
2024-04-24T03:50:14.982Z,465.00
2024-04-24T03:51:14.976Z,465.00
2024-04-24T03:52:14.941Z,462.00
2024-04-24T03:53:14.967Z,462.00
2024-04-24T03:54:14.936Z,462.00
2024-04-24T03:55:14.959Z,461.00
2024-04-24T03:56:15.048Z,460.00
2024-04-24T03:57:14.955Z,460.00
2024-04-24T03:58:14.964Z,462.00
2024-04-24T03:59:15.003Z,463.00
2024-04-24T04:00:14.954Z,464.00
2024-04-24T04:01:15.067Z,466.00
2024-04-24T04:02:14.994Z,464.00
2024-04-24T04:03:15.004Z,464.00
2024-04-24T04:04:15.090Z,464.00
2024-04-24T04:05:15.145Z,465.00
2024-04-24T04:06:15.221Z,466.00
2024-04-24T04:07:15.271Z,466.00
2024-04-24T04:08:15.347Z,466.00
2024-04-24T04:09:15.397Z,465.00
2024-04-24T04:10:15.456Z,463.00
2024-04-24T04:11:15.601Z,462.00
2024-04-24T04:12:15.648Z,462.00
2024-04-24T04:13:15.675Z,460.00
2024-04-24T04:14:15.805Z,460.00
2024-04-24T04:15:15.841Z,461.00
2024-04-24T04:16:15.896Z,461.00
2024-04-24T04:17:16.038Z,459.00
2024-04-24T04:18:16.156Z,458.00
2024-04-24T04:19:16.123Z,458.00
2024-04-24T04:20:16.315Z,458.00
2024-04-24T04:21:16.294Z,461.00
2024-04-24T04:22:16.366Z,463.00
2024-04-24T04:23:16.467Z,464.00
2024-04-24T04:24:16.545Z,465.00
2024-04-24T04:25:16.592Z,468.00
2024-04-24T04:26:16.715Z,469.00
2024-04-24T04:27:16.761Z,469.00
2024-04-24T04:28:16.838Z,469.00
2024-04-24T04:29:16.962Z,467.00
2024-04-24T04:30:16.984Z,464.00
2024-04-24T04:31:17.048Z,466.00
2024-04-24T04:32:17.175Z,464.00
2024-04-24T04:33:17.322Z,464.00
2024-04-24T04:34:17.283Z,463.00
2024-04-24T04:35:17.380Z,462.00
2024-04-24T04:36:17.443Z,463.00
2024-04-24T04:37:17.517Z,465.00
2024-04-24T04:38:17.611Z,468.00
2024-04-24T04:39:17.681Z,470.00
2024-04-24T04:40:17.749Z,470.00
2024-04-24T04:41:17.846Z,470.00
2024-04-24T04:42:17.892Z,468.00
2024-04-24T04:43:19.061Z,467.00
2024-04-24T04:44:17.988Z,467.00
2024-04-24T04:45:17.980Z,468.00
2024-04-24T04:46:17.975Z,465.00
2024-04-24T04:47:18.203Z,463.00
2024-04-24T04:48:25.558Z,463.00
2024-04-24T04:49:26.469Z,470.00
2024-04-24T04:50:26.555Z,468.00
2024-04-24T04:51:26.478Z,465.00
2024-04-24T04:52:26.499Z,468.00
2024-04-24T04:53:26.511Z,468.00
2024-04-24T04:54:26.477Z,463.00
2024-04-24T04:55:26.480Z,466.00
2024-04-24T04:56:26.533Z,466.00
2024-04-24T04:57:26.491Z,464.00
2024-04-24T04:58:26.513Z,465.00
2024-04-24T04:59:26.647Z,465.00
2024-04-24T05:00:26.496Z,464.00
2024-04-24T05:01:26.513Z,465.00
2024-04-24T05:02:26.860Z,463.00
2024-04-24T05:03:26.570Z,463.00
2024-04-24T05:04:26.726Z,464.00
2024-04-24T05:05:26.603Z,460.00
2024-04-24T05:06:26.556Z,462.00
2024-04-24T05:07:26.537Z,461.00
2024-04-24T05:08:26.611Z,464.00
2024-04-24T05:09:26.655Z,462.00
2024-04-24T05:10:26.745Z,460.00
2024-04-24T05:11:26.931Z,458.00
2024-04-24T05:12:26.947Z,459.00
2024-04-24T05:13:27.070Z,459.00
2024-04-24T05:14:27.240Z,457.00
2024-04-24T05:15:27.241Z,457.00
2024-04-24T05:16:27.364Z,455.00
2024-04-24T05:17:27.628Z,456.00
2024-04-24T05:18:27.648Z,457.00
2024-04-24T05:19:27.695Z,456.00
2024-04-24T05:20:27.851Z,455.00
2024-04-24T05:21:27.865Z,457.00
2024-04-24T05:22:27.965Z,456.00
2024-04-24T05:23:28.073Z,456.00
2024-04-24T05:24:28.139Z,457.00
2024-04-24T05:25:28.254Z,455.00
2024-04-24T05:26:28.374Z,455.00
2024-04-24T05:27:28.614Z,456.00
2024-04-24T05:28:28.541Z,455.00
2024-04-24T05:29:28.677Z,455.00
2024-04-24T05:30:28.745Z,455.00
2024-04-24T05:31:28.828Z,456.00
2024-04-24T05:32:29.018Z,453.00
2024-04-24T05:33:29.128Z,453.00
2024-04-24T05:34:29.160Z,456.00
2024-04-24T05:35:29.287Z,456.00
2024-04-24T05:36:29.363Z,458.00
2024-04-24T05:37:29.457Z,461.00
2024-04-24T05:38:29.596Z,467.00
2024-04-24T05:39:29.665Z,468.00
2024-04-24T05:40:29.778Z,469.00
2024-04-24T05:41:29.978Z,480.00
2024-04-24T05:42:29.927Z,489.00
2024-04-24T05:43:30.002Z,494.00
2024-04-24T05:44:30.120Z,498.00
2024-04-24T05:45:30.303Z,498.00
2024-04-24T05:46:30.226Z,505.00
2024-04-24T05:47:30.470Z,510.00
2024-04-24T05:48:30.500Z,509.00
2024-04-24T05:49:30.510Z,511.00
2024-04-24T05:50:30.729Z,508.00
2024-04-24T05:51:30.734Z,508.00
2024-04-24T05:52:30.839Z,614.00
2024-04-24T05:53:31.143Z,616.00
2024-04-24T05:54:31.093Z,616.00
2024-04-24T05:55:31.182Z,622.00
2024-04-24T05:56:31.318Z,632.00
2024-04-24T05:57:31.343Z,645.00
2024-04-24T05:58:31.429Z,650.00
2024-04-24T05:59:31.538Z,649.00
2024-04-24T06:00:31.557Z,648.00
2024-04-24T06:01:36.756Z,649.00
2024-04-24T06:02:31.763Z,657.00
2024-04-24T06:03:31.650Z,736.00
2024-04-24T06:04:31.658Z,762.00
2024-04-24T06:05:31.761Z,774.00
2024-04-24T06:06:31.656Z,802.00
2024-04-24T06:07:31.643Z,871.00
2024-04-24T06:08:31.650Z,871.00
2024-04-24T06:09:31.650Z,877.00
2024-04-24T06:10:31.658Z,880.00
2024-04-24T06:11:31.740Z,890.00
2024-04-24T06:12:31.676Z,900.00
2024-04-24T06:13:31.669Z,929.00
2024-04-24T06:14:31.757Z,948.00
2024-04-24T06:15:35.268Z,957.00
2024-04-24T06:16:31.665Z,968.00
2024-04-24T06:17:32.105Z,996.00
2024-04-24T06:18:32.146Z,1021.00
2024-04-24T06:19:32.016Z,1081.00
2024-04-24T06:20:32.117Z,1091.00
2024-04-24T06:21:32.490Z,1108.00
2024-04-24T06:22:31.875Z,1114.00
2024-04-24T06:23:32.001Z,1160.00
2024-04-24T06:24:31.710Z,1191.00
2024-04-24T06:25:31.738Z,1208.00
2024-04-24T06:26:31.880Z,1221.00
2024-04-24T06:27:31.932Z,1230.00
2024-04-24T06:28:32.048Z,1243.00
2024-04-24T06:29:32.199Z,1261.00
2024-04-24T06:30:32.204Z,1288.00
2024-04-24T06:31:32.294Z,1333.00
2024-04-24T06:32:32.646Z,1343.00
2024-04-24T06:33:32.530Z,1362.00
2024-04-24T06:34:32.679Z,1378.00
2024-04-24T06:35:34.604Z,1399.00
2024-04-24T06:36:32.652Z,1419.00
2024-04-24T06:37:32.654Z,1437.00
2024-04-24T06:38:32.708Z,1454.00
2024-04-24T06:39:32.678Z,1472.00
2024-04-24T06:40:32.661Z,1505.00
2024-04-24T06:41:32.766Z,1514.00
2024-04-24T06:42:32.686Z,1528.00
2024-04-24T06:43:33.122Z,1568.00
2024-04-24T06:44:33.189Z,1589.00
2024-04-24T06:45:32.680Z,1632.00
2024-04-24T06:46:33.583Z,1644.00
2024-04-24T06:47:32.800Z,1633.00
2024-04-24T06:48:33.183Z,1420.00
2024-04-24T06:49:32.716Z,1044.00
2024-04-24T06:50:32.817Z,950.00
2024-04-24T06:51:32.792Z,914.00
2024-04-24T06:52:32.748Z,906.00
2024-04-24T06:53:33.229Z,890.00
2024-04-24T06:54:32.727Z,861.00
2024-04-24T06:55:32.747Z,861.00
2024-04-24T06:56:32.777Z,856.00
2024-04-24T06:57:32.749Z,854.00
2024-04-24T06:58:32.771Z,918.00
2024-04-24T06:59:32.821Z,917.00
2024-04-24T07:00:33.085Z,908.00
2024-04-24T07:01:33.270Z,904.00
2024-04-24T07:02:32.849Z,846.00
2024-04-24T07:03:32.893Z,818.00
2024-04-24T07:04:32.871Z,809.00
2024-04-24T07:05:33.291Z,809.00
2024-04-24T07:06:32.936Z,804.00
2024-04-24T07:07:33.024Z,801.00
2024-04-24T07:08:33.732Z,799.00
2024-04-24T07:09:33.156Z,802.00
2024-04-24T07:10:33.214Z,818.00
2024-04-24T07:11:33.286Z,820.00
2024-04-24T07:12:33.225Z,810.00
2024-04-24T07:13:33.213Z,805.00
2024-04-24T07:14:33.314Z,802.00
2024-04-24T07:15:33.258Z,800.00
2024-04-24T07:16:33.310Z,805.00
2024-04-24T07:17:33.492Z,808.00
2024-04-24T07:18:33.516Z,810.00
2024-04-24T07:19:33.544Z,804.00
2024-04-24T07:20:33.708Z,808.00
2024-04-24T07:21:33.669Z,810.00
2024-04-24T07:22:33.768Z,802.00
2024-04-24T07:23:33.870Z,794.00
2024-04-24T07:24:33.909Z,798.00
2024-04-24T07:25:34.018Z,796.00
2024-04-24T07:26:34.090Z,793.00
2024-04-24T07:27:34.168Z,790.00
2024-04-24T07:28:34.200Z,792.00
2024-04-24T07:29:34.351Z,796.00
2024-04-24T07:30:34.355Z,802.00
2024-04-24T07:31:34.490Z,808.00
2024-04-24T07:32:34.629Z,818.00
2024-04-24T07:33:34.621Z,826.00
2024-04-24T07:34:34.696Z,829.00
2024-04-24T07:35:34.796Z,814.00
2024-04-24T07:36:34.851Z,804.00
2024-04-24T07:37:34.906Z,803.00
2024-04-24T07:38:35.235Z,809.00
2024-04-24T07:39:35.088Z,883.00
2024-04-24T07:40:35.697Z,894.00
2024-04-24T07:41:35.223Z,908.00
2024-04-24T07:42:35.231Z,924.00
2024-04-24T07:43:35.230Z,943.00
2024-04-24T07:44:35.297Z,983.00
2024-04-24T07:45:35.431Z,1002.00
2024-04-24T07:46:35.415Z,1016.00
2024-04-24T07:47:35.490Z,1033.00
2024-04-24T07:48:35.537Z,1053.00
2024-04-24T07:49:35.521Z,1071.00
2024-04-24T07:50:35.698Z,1122.00
2024-04-24T07:51:35.704Z,1132.00
2024-04-24T07:52:35.794Z,1151.00
2024-04-24T07:53:36.494Z,1162.00
2024-04-24T07:54:35.970Z,1163.00
2024-04-24T07:55:35.994Z,1167.00
2024-04-24T07:56:36.231Z,1170.00
2024-04-24T07:57:36.117Z,1166.00
2024-04-24T07:58:36.242Z,1162.00
2024-04-24T07:59:36.292Z,1159.00
2024-04-24T08:00:36.326Z,1153.00
2024-04-24T08:01:36.340Z,1147.00
2024-04-24T08:02:36.673Z,1147.00
2024-04-24T08:03:36.544Z,1144.00
2024-04-24T08:04:36.608Z,1140.00
2024-04-24T08:05:36.774Z,1140.00
2024-04-24T08:06:36.825Z,1138.00
2024-04-24T08:07:36.879Z,1135.00
2024-04-24T08:08:37.013Z,1134.00
2024-04-24T08:09:37.123Z,1130.00
2024-04-24T08:10:37.249Z,1128.00
2024-04-24T08:11:37.356Z,1127.00
2024-04-24T08:12:37.383Z,1126.00
2024-04-24T08:13:37.535Z,1127.00
2024-04-24T08:14:37.620Z,1125.00
2024-04-24T08:15:37.720Z,1123.00
2024-04-24T08:16:37.856Z,1123.00
2024-04-24T08:17:38.120Z,1123.00
2024-04-24T08:18:38.012Z,1123.00
2024-04-24T08:19:38.111Z,1122.00
2024-04-24T08:20:38.243Z,1120.00
2024-04-24T08:21:38.346Z,1118.00
2024-04-24T08:22:38.511Z,1114.00
2024-04-24T08:23:38.613Z,1113.00
2024-04-24T08:24:38.641Z,1113.00
2024-04-24T08:25:38.721Z,1112.00
2024-04-24T08:26:38.849Z,1111.00
2024-04-24T08:27:38.933Z,1109.00
2024-04-24T08:28:41.297Z,1110.00
2024-04-24T08:29:39.085Z,1106.00
2024-04-24T08:30:39.008Z,1101.00
2024-04-24T08:31:39.012Z,1100.00
2024-04-24T08:32:39.146Z,1099.00
2024-04-24T08:33:39.262Z,1098.00
2024-04-24T08:34:39.020Z,1097.00
2024-04-24T08:35:39.027Z,1098.00
2024-04-24T08:36:39.923Z,1096.00
2024-04-24T08:37:39.101Z,1096.00
2024-04-24T08:38:39.172Z,1093.00
2024-04-24T08:39:39.099Z,1089.00
2024-04-24T08:40:39.053Z,1089.00
2024-04-24T08:41:39.059Z,1089.00
2024-04-24T08:42:39.043Z,1085.00
2024-04-24T08:43:39.039Z,1084.00
2024-04-24T08:44:39.100Z,1084.00
2024-04-24T08:45:39.034Z,1082.00
2024-04-24T08:46:39.050Z,1078.00
2024-04-24T08:47:39.141Z,1078.00
2024-04-24T08:48:39.255Z,1075.00
2024-04-24T08:49:39.046Z,1072.00
2024-04-24T08:50:39.057Z,1069.00
2024-04-24T08:51:39.265Z,1068.00
2024-04-24T08:52:39.047Z,1067.00
2024-04-24T08:53:39.054Z,1066.00
2024-04-24T08:54:39.070Z,1067.00
2024-04-24T08:55:39.055Z,1070.00
2024-04-24T08:56:39.064Z,1068.00
2024-04-24T08:57:39.085Z,1067.00
2024-04-24T08:58:39.095Z,1068.00
2024-04-24T08:59:39.089Z,1068.00
2024-04-24T09:00:39.086Z,1070.00
2024-04-24T09:01:39.077Z,1069.00
2024-04-24T09:02:39.289Z,1072.00
2024-04-24T09:03:39.387Z,1072.00
2024-04-24T09:04:39.382Z,1070.00
2024-04-24T09:05:39.498Z,1065.00
2024-04-24T09:06:39.544Z,1061.00
2024-04-24T09:07:39.661Z,1063.00
2024-04-24T09:08:39.755Z,1063.00
2024-04-24T09:09:39.873Z,1060.00
2024-04-24T09:10:39.963Z,1057.00
2024-04-24T09:11:40.115Z,1059.00
2024-04-24T09:12:40.147Z,1057.00
2024-04-24T09:13:40.241Z,1058.00
2024-04-24T09:14:40.377Z,1055.00
2024-04-24T09:15:40.449Z,1053.00
2024-04-24T09:16:40.557Z,1053.00
2024-04-24T09:17:40.749Z,1051.00
2024-04-24T09:18:40.832Z,1051.00
2024-04-24T09:19:40.841Z,1051.00
2024-04-24T09:20:40.935Z,1049.00
2024-04-24T09:21:41.035Z,1048.00
2024-04-24T09:22:41.131Z,1046.00
2024-04-24T09:23:41.225Z,1046.00
2024-04-24T09:24:41.307Z,1046.00
2024-04-24T09:25:41.437Z,1043.00
2024-04-24T09:26:41.519Z,1044.00
2024-04-24T09:27:41.699Z,1044.00
2024-04-24T09:28:42.196Z,1044.00
2024-04-24T09:29:42.870Z,1042.00
2024-04-24T09:30:41.755Z,1045.00
2024-04-24T09:31:41.806Z,1048.00
2024-04-24T09:32:41.918Z,1048.00
2024-04-24T09:33:41.912Z,1045.00
2024-04-24T09:34:41.853Z,1045.00
2024-04-24T09:35:41.897Z,1043.00
2024-04-24T09:36:43.281Z,1043.00
2024-04-24T09:37:42.039Z,1040.00
2024-04-24T09:38:42.067Z,1041.00
2024-04-24T09:39:42.091Z,1038.00
2024-04-24T09:40:42.104Z,1037.00
2024-04-24T09:41:42.125Z,1033.00
2024-04-24T09:42:42.152Z,1029.00
2024-04-24T09:43:42.225Z,1027.00
2024-04-24T09:44:42.345Z,1021.00
2024-04-24T09:45:42.385Z,1019.00
2024-04-24T09:46:42.464Z,1019.00
2024-04-24T09:47:42.682Z,1018.00
2024-04-24T09:48:42.681Z,1016.00
2024-04-24T09:49:42.755Z,1016.00
2024-04-24T09:50:42.952Z,1011.00
2024-04-24T09:51:42.963Z,1012.00
2024-04-24T09:52:43.047Z,1007.00
2024-04-24T09:53:43.159Z,1007.00
2024-04-24T09:54:43.243Z,1007.00
2024-04-24T09:55:43.344Z,1007.00
2024-04-24T09:56:43.445Z,1006.00
2024-04-24T09:57:43.544Z,1004.00
2024-04-24T09:58:43.646Z,1000.00
2024-04-24T09:59:43.736Z,998.00
2024-04-24T10:00:43.838Z,997.00
2024-04-24T10:01:43.928Z,996.00
2024-04-24T10:02:44.145Z,993.00
2024-04-24T10:03:44.100Z,995.00
2024-04-24T10:04:44.212Z,993.00
2024-04-24T10:05:51.687Z,992.00
2024-04-24T10:06:44.315Z,988.00
2024-04-24T10:07:44.319Z,985.00
2024-04-24T10:08:44.307Z,985.00
2024-04-24T10:09:44.304Z,988.00
2024-04-24T10:10:44.303Z,987.00
2024-04-24T10:11:44.376Z,987.00
2024-04-24T10:12:44.357Z,980.00
2024-04-24T10:13:44.711Z,981.00
2024-04-24T10:14:44.377Z,979.00
2024-04-24T10:15:44.360Z,980.00
2024-04-24T10:16:44.352Z,981.00
2024-04-24T10:17:44.474Z,981.00
2024-04-24T10:18:44.445Z,979.00
2024-04-24T10:19:44.380Z,978.00
2024-04-24T10:20:44.387Z,975.00
2024-04-24T10:21:44.371Z,970.00
2024-04-24T10:22:44.369Z,967.00
2024-04-24T10:23:44.425Z,964.00
2024-04-24T10:24:44.419Z,965.00
2024-04-24T10:25:44.401Z,964.00
2024-04-24T10:26:44.414Z,963.00
2024-04-24T10:27:44.404Z,962.00
2024-04-24T10:28:45.731Z,961.00
2024-04-24T10:29:44.409Z,957.00
2024-04-24T10:30:44.398Z,955.00
2024-04-24T10:31:44.406Z,951.00
2024-04-24T10:32:44.486Z,950.00
2024-04-24T10:33:44.550Z,946.00
2024-04-24T10:34:44.407Z,941.00
2024-04-24T10:35:44.423Z,940.00
2024-04-24T10:36:44.414Z,934.00
2024-04-24T10:37:44.423Z,930.00
2024-04-24T10:38:44.420Z,931.00
2024-04-24T10:39:44.480Z,933.00
2024-04-24T10:40:44.428Z,933.00
2024-04-24T10:41:44.424Z,935.00
2024-04-24T10:42:44.420Z,934.00
2024-04-24T10:43:44.448Z,933.00
2024-04-24T10:44:44.453Z,930.00
2024-04-24T10:45:44.436Z,933.00
2024-04-24T10:46:44.426Z,931.00
2024-04-24T10:47:44.527Z,932.00
2024-04-24T10:48:44.473Z,931.00
2024-04-24T10:49:44.437Z,931.00
2024-04-24T10:50:44.480Z,926.00
2024-04-24T10:51:44.424Z,924.00
2024-04-24T10:52:44.435Z,922.00
2024-04-24T10:53:52.387Z,919.00
2024-04-24T10:54:44.438Z,916.00
2024-04-24T10:55:44.433Z,914.00
2024-04-24T10:56:44.556Z,914.00
2024-04-24T10:57:44.603Z,910.00
2024-04-24T10:58:44.441Z,910.00
2024-04-24T10:59:44.453Z,907.00
2024-04-24T11:00:44.472Z,907.00
2024-04-24T11:01:52.575Z,906.00
2024-04-24T11:02:44.519Z,905.00
2024-04-24T11:03:44.506Z,906.00
2024-04-24T11:04:44.455Z,905.00
2024-04-24T11:05:44.595Z,902.00
2024-04-24T11:06:44.470Z,896.00
2024-04-24T11:07:44.489Z,893.00
2024-04-24T11:08:44.536Z,895.00
2024-04-24T11:09:44.492Z,897.00
2024-04-24T11:10:44.764Z,894.00
2024-04-24T11:11:44.547Z,894.00
2024-04-24T11:12:44.514Z,895.00
2024-04-24T11:13:44.499Z,891.00
2024-04-24T11:14:44.554Z,889.00
2024-04-24T11:15:54.242Z,887.00
2024-04-24T11:16:44.550Z,886.00
2024-04-24T11:17:44.745Z,885.00
2024-04-24T11:18:44.650Z,884.00
2024-04-24T11:19:44.567Z,881.00
2024-04-24T11:20:44.592Z,878.00
2024-04-24T11:21:44.609Z,879.00
2024-04-24T11:22:44.596Z,876.00
2024-04-24T11:23:44.598Z,875.00
2024-04-24T11:24:44.598Z,876.00
2024-04-24T11:25:51.859Z,877.00
2024-04-24T11:26:44.616Z,877.00
2024-04-24T11:27:44.600Z,876.00
2024-04-24T11:28:44.599Z,876.00
2024-04-24T11:29:44.606Z,876.00
2024-04-24T11:30:45.500Z,872.00
2024-04-24T11:31:44.626Z,872.00
2024-04-24T11:32:44.790Z,872.00
2024-04-24T11:33:47.340Z,872.00
2024-04-24T11:34:44.615Z,871.00
2024-04-24T11:35:44.652Z,872.00
2024-04-24T11:36:44.667Z,873.00
2024-04-24T11:37:44.745Z,871.00
2024-04-24T11:38:44.732Z,868.00
2024-04-24T11:39:44.760Z,867.00
2024-04-24T11:40:44.820Z,865.00
2024-04-24T11:41:44.815Z,864.00
2024-04-24T11:42:44.860Z,862.00
2024-04-24T11:43:44.860Z,862.00
2024-04-24T11:44:44.950Z,861.00
2024-04-24T11:45:45.055Z,859.00
2024-04-24T11:46:45.173Z,856.00
2024-04-24T11:47:45.335Z,858.00
2024-04-24T11:48:51.579Z,858.00
2024-04-24T11:49:45.391Z,857.00
2024-04-24T11:50:45.421Z,853.00
2024-04-24T11:51:45.351Z,852.00
2024-04-24T11:52:45.655Z,854.00
2024-04-24T11:53:45.902Z,854.00
2024-04-24T11:54:45.359Z,851.00
2024-04-24T11:55:45.376Z,850.00
2024-04-24T11:56:45.358Z,850.00
2024-04-24T11:57:45.347Z,850.00
2024-04-24T11:58:45.339Z,850.00
2024-04-24T11:59:45.351Z,850.00
2024-04-24T12:00:45.396Z,851.00
2024-04-24T12:01:45.371Z,852.00
2024-04-24T12:02:45.414Z,848.00
2024-04-24T12:03:45.355Z,848.00
2024-04-24T12:04:45.484Z,850.00
2024-04-24T12:05:45.355Z,849.00
2024-04-24T12:06:45.362Z,848.00
2024-04-24T12:07:45.361Z,850.00
2024-04-24T12:08:45.365Z,847.00
2024-04-24T12:09:45.383Z,842.00
2024-04-24T12:10:45.360Z,839.00
2024-04-24T12:11:45.463Z,839.00
2024-04-24T12:12:45.386Z,837.00
2024-04-24T12:13:45.382Z,833.00
2024-04-24T12:14:45.387Z,834.00
2024-04-24T12:15:45.444Z,834.00
2024-04-24T12:16:45.479Z,834.00
2024-04-24T12:17:45.670Z,833.00
2024-04-24T12:18:45.727Z,831.00
2024-04-24T12:19:45.855Z,828.00
2024-04-24T12:20:45.839Z,825.00
2024-04-24T12:21:45.898Z,823.00
2024-04-24T12:22:45.969Z,823.00
2024-04-24T12:23:46.066Z,822.00